Time;durP1;ratioP1;P1;durP2;ratioP2;P2;SDS_P1;SDS_P2;PMS_P1;PMS_P2;Temp;Humidity;BMP_temperature;BMP_pressure;BME280_temperature;BME280_humidity;BME280_pressure;Samples;Min_cycle;Max_cycle;Signal;HPM_P1;HPM_P2
2022/08/27 00:00:18;;;;;;;11.60;10.30;;;;;;;17.71;100.00;98433.88;105107;1271;61390;-70
2022/08/27 00:03:05;;;;;;;13.00;10.80;;;;;;;17.67;100.00;98433.82;105084;1271;75092;-71
2022/08/27 00:05:31;;;;;;;15.00;10.60;;;;;;;17.63;100.00;98431.30;105122;1270;68625;-71
2022/08/27 00:07:57;;;;;;;12.20;10.70;;;;;;;17.60;100.00;98430.02;105083;1271;61419;-71
2022/08/27 00:10:26;;;;;;;11.80;10.50;;;;;;;17.57;100.00;98432.92;105061;1270;61341;-71
2022/08/27 00:12:55;;;;;;;12.60;10.30;;;;;;;17.53;100.00;98430.96;105142;1271;61400;-71
2022/08/27 00:15:22;;;;;;;12.00;10.10;;;;;;;17.49;100.00;98430.63;104997;1270;74908;-71
2022/08/27 00:17:48;;;;;;;15.40;10.50;;;;;;;17.46;100.00;98432.77;104874;1271;69270;-71
2022/08/27 00:20:16;;;;;;;15.90;10.70;;;;;;;17.41;100.00;98434.19;105044;1271;61358;-74
2022/08/27 00:22:42;;;;;;;14.60;11.10;;;;;;;17.37;100.00;98438.91;105022;1271;61298;-72
2022/08/27 00:25:11;;;;;;;13.00;11.30;;;;;;;17.32;100.00;98438.83;105087;1271;61427;-73
2022/08/27 00:27:37;;;;;;;15.30;12.10;;;;;;;17.29;100.00;98437.21;104989;1270;75829;-71
2022/08/27 00:30:06;;;;;;;16.70;11.60;;;;;;;17.27;100.00;98434.91;104888;1271;70281;-71
2022/08/27 00:32:33;;;;;;;13.50;11.70;;;;;;;17.28;100.00;98436.82;104916;1271;74287;-71
2022/08/27 00:34:58;;;;;;;15.30;11.80;;;;;;;17.29;100.00;98435.23;104926;1271;61368;-71
2022/08/27 00:37:25;;;;;;;14.40;11.10;;;;;;;17.31;100.00;98433.27;105036;1270;61461;-71
2022/08/27 00:39:52;;;;;;;18.30;12.40;;;;;;;17.33;100.00;98429.06;105101;1271;61347;-72
2022/08/27 00:42:18;;;;;;;15.00;11.50;;;;;;;17.37;100.00;98425.67;104963;1271;61556;-70
2022/08/27 00:44:44;;;;;;;15.00;11.50;;;;;;;17.38;100.00;98427.20;105006;1271;61308;-71
2022/08/27 00:47:21;;;;;;;14.90;11.70;;;;;;;17.37;100.00;98426.73;105067;1271;61403;-71
2022/08/27 00:49:59;;;;;;;17.30;12.70;;;;;;;17.35;100.00;98433.35;105111;1271;61537;-72
2022/08/27 00:52:31;;;;;;;15.30;13.70;;;;;;;17.33;100.00;98425.15;105087;1271;75699;-71
2022/08/27 00:55:13;;;;;;;13.30;11.60;;;;;;;17.31;100.00;98429.95;105088;1271;69043;-71
2022/08/27 00:57:42;;;;;;;13.40;11.30;;;;;;;17.30;100.00;98426.70;104981;1271;73824;-71
2022/08/27 01:00:13;;;;;;;14.50;11.10;;;;;;;17.30;100.00;98427.91;105103;1271;61560;-71
2022/08/27 01:02:40;;;;;;;16.20;13.30;;;;;;;17.32;100.00;98427.37;104660;1274;61223;-71
2022/08/27 01:05:10;;;;;;;18.30;11.40;;;;;;;17.30;100.00;98427.03;105113;1271;76331;-71
2022/08/27 01:07:38;;;;;;;;;;;;;;;17.27;100.00;98425.63;105070;1270;69659;-71
2022/08/27 01:10:09;;;;;;;16.00;11.40;;;;;;;17.22;100.00;98426.06;105050;1271;72629;-70
2022/08/27 01:12:36;;;;;;;16.30;11.70;;;;;;;17.21;100.00;98426.36;105044;1271;61307;-70
2022/08/27 01:15:06;;;;;;;15.40;11.60;;;;;;;17.20;100.00;98424.64;105070;1271;61170;-70
2022/08/27 01:17:35;;;;;;;13.60;10.90;;;;;;;17.20;100.00;98422.02;105094;1271;74815;-70
2022/08/27 01:20:08;;;;;;;19.40;12.90;;;;;;;17.17;100.00;98422.34;105040;1271;68685;-70
2022/08/27 01:23:02;;;;;;;18.40;13.20;;;;;;;17.13;100.00;98425.23;104967;1271;73354;-71
2022/08/27 01:25:29;;;;;;;20.40;13.40;;;;;;;17.08;100.00;98422.45;105053;1271;61377;-71
2022/08/27 01:27:59;;;;;;;14.30;12.10;;;;;;;17.05;100.00;98421.19;105096;1271;61826;-70
2022/08/27 01:30:26;;;;;;;16.30;12.40;;;;;;;17.01;100.00;98424.27;105097;1271;75430;-70
2022/08/27 01:32:53;;;;;;;13.90;11.30;;;;;;;16.97;100.00;98426.34;105081;1271;69531;-70
2022/08/27 01:35:22;;;;;;;17.70;11.20;;;;;;;16.91;100.00;98428.92;105079;1270;74439;-71
2022/08/27 01:37:51;;;;;;;17.10;11.10;;;;;;;16.86;100.00;98429.45;104893;1271;61408;-71
2022/08/27 01:40:19;;;;;;;21.30;11.90;;;;;;;16.82;100.00;98430.70;105036;1271;61248;-71
2022/08/27 01:42:48;;;;;;;17.70;12.70;;;;;;;16.79;100.00;98427.62;105112;1271;75453;-71
2022/08/27 01:45:19;;;;;;;15.70;13.60;;;;;;;16.76;100.00;98425.41;105128;1271;70431;-70
2022/08/27 01:47:46;;;;;;;17.70;11.70;;;;;;;16.73;100.00;98423.90;104989;1270;74474;-71
2022/08/27 01:50:25;;;;;;;16.10;11.90;;;;;;;16.72;100.00;98426.52;105061;1271;61365;-71
2022/08/27 01:52:53;;;;;;;15.50;11.30;;;;;;;16.74;100.00;98424.38;104880;1271;61342;-71
2022/08/27 01:55:24;;;;;;;14.40;12.10;;;;;;;16.76;100.00;98426.34;104993;1270;75224;-71
2022/08/27 01:57:51;;;;;;;;;;;;;;;16.76;100.00;98427.35;105013;1270;69562;-71
2022/08/27 02:00:37;;;;;;;20.20;11.70;;;;;;;16.77;100.00;98426.77;105000;1270;73370;-70
2022/08/27 02:03:05;;;;;;;16.60;11.90;;;;;;;16.77;100.00;98423.71;104982;1270;61352;-70
2022/08/27 02:05:32;;;;;;;15.50;12.00;;;;;;;16.79;100.00;98424.98;105119;1270;61394;-70
2022/08/27 02:07:58;;;;;;;15.90;11.30;;;;;;;16.81;100.00;98424.06;105043;1271;61258;-70
2022/08/27 02:10:31;;;;;;;18.20;12.40;;;;;;;16.84;100.00;98420.42;105061;1271;61401;-70
2022/08/27 02:12:57;;;;;;;14.80;11.40;;;;;;;16.89;100.00;98420.13;105030;1270;74320;-70
2022/08/27 02:15:24;;;;;;;17.30;11.50;;;;;;;16.91;100.00;98418.20;104816;1271;61477;-71
2022/08/27 02:17:51;;;;;;;17.50;11.90;;;;;;;16.90;100.00;98416.64;104850;1271;61423;-71
2022/08/27 02:20:18;;;;;;;15.50;11.20;;;;;;;16.93;100.00;98414.05;104868;1274;76378;-70
2022/08/27 02:22:44;;;;;;;15.70;11.20;;;;;;;16.92;100.00;98413.17;105080;1270;71398;-71
2022/08/27 02:25:14;;;;;;;19.60;12.00;;;;;;;16.92;100.00;98414.13;105015;1271;72460;-70
2022/08/27 02:27:42;;;;;;;14.90;11.30;;;;;;;16.89;100.00;98412.08;105027;1270;61272;-70
2022/08/27 02:30:11;;;;;;;14.20;11.40;;;;;;;16.86;100.00;98413.98;105014;1270;61266;-71
2022/08/27 02:32:38;;;;;;;;;;;;;;;16.83;100.00;98417.48;105122;1268;75513;-71
2022/08/27 02:35:05;;;;;;;14.90;11.30;;;;;;;16.79;100.00;98419.58;104818;1270;61360;-71
2022/08/27 02:37:31;;;;;;;19.80;11.20;;;;;;;16.75;100.00;98420.45;104813;1271;72851;-70
2022/08/27 02:39:57;;;;;;;14.30;11.10;;;;;;;16.72;100.00;98420.98;104881;1269;61348;-70
2022/08/27 02:42:23;;;;;;;13.10;10.60;;;;;;;16.68;100.00;98419.02;104979;1270;61270;-70
2022/08/27 02:44:50;;;;;;;13.80;11.00;;;;;;;16.64;100.00;98418.67;105046;1271;61504;-71
2022/08/27 02:47:16;;;;;;;15.80;11.40;;;;;;;16.61;100.00;98423.36;105016;1270;61211;-70
2022/08/27 02:49:43;;;;;;;13.50;10.30;;;;;;;16.57;100.00;98424.30;104817;1273;61410;-70
2022/08/27 02:52:09;;;;;;;13.40;10.40;;;;;;;16.53;100.00;98421.62;105004;1270;61285;-70
2022/08/27 02:54:36;;;;;;;14.80;11.10;;;;;;;16.50;100.00;98421.75;105052;1270;61471;-70
2022/08/27 02:57:02;;;;;;;12.00;10.50;;;;;;;16.46;100.00;98424.61;105040;1271;61387;-70
2022/08/27 02:59:27;;;;;;;13.30;10.70;;;;;;;16.42;100.00;98422.86;105066;1270;61401;-70
2022/08/27 03:01:54;;;;;;;13.10;10.70;;;;;;;16.38;100.00;98421.70;104988;1271;61304;-71
2022/08/27 03:04:21;;;;;;;14.80;10.50;;;;;;;16.33;100.00;98416.48;105063;1270;61413;-71
2022/08/27 03:06:48;;;;;;;12.80;10.50;;;;;;;16.28;100.00;98415.70;104938;1270;61301;-70
2022/08/27 03:09:14;;;;;;;14.70;10.60;;;;;;;16.23;100.00;98416.33;105044;1270;61381;-70
2022/08/27 03:11:41;;;;;;;14.60;10.80;;;;;;;16.21;100.00;98419.45;104845;1271;61382;-70
2022/08/27 03:14:07;;;;;;;14.50;11.20;;;;;;;16.17;100.00;98414.45;105073;1271;61410;-70
2022/08/27 03:16:36;;;;;;;14.10;11.30;;;;;;;16.14;100.00;98409.21;105051;1270;61336;-69
2022/08/27 03:19:06;;;;;;;13.50;10.60;;;;;;;16.12;100.00;98405.63;105073;1270;62321;-70
2022/08/27 03:21:34;;;;;;;14.90;10.30;;;;;;;16.12;100.00;98410.52;105072;1271;75471;-70
2022/08/27 03:24:00;;;;;;;15.40;10.40;;;;;;;16.11;100.00;98413.30;104912;1273;70466;-71
2022/08/27 03:26:33;;;;;;;12.50;10.00;;;;;;;16.08;100.00;98413.77;105024;1270;61309;-70
2022/08/27 03:28:59;;;;;;;13.70;10.20;;;;;;;16.06;100.00;98414.30;105066;1270;61298;-71
2022/08/27 03:31:26;;;;;;;13.60;10.20;;;;;;;16.05;100.00;98420.20;104937;1271;61362;-71
2022/08/27 03:33:59;;;;;;;11.50;9.40;;;;;;;16.02;100.00;98420.37;104890;1270;75319;-71
2022/08/27 03:36:28;;;;;;;13.20;11.80;;;;;;;16.02;100.00;98424.40;104827;1270;70388;-71
2022/08/27 03:38:56;;;;;;;12.10;10.70;;;;;;;15.98;100.00;98419.33;104974;1270;74358;-71
2022/08/27 03:41:23;;;;;;;11.60;10.40;;;;;;;15.96;100.00;98416.04;105106;1270;61296;-70
2022/08/27 03:43:53;;;;;;;13.80;10.80;;;;;;;15.92;100.00;98414.04;104997;1270;62263;-72
2022/08/27 03:46:19;;;;;;;12.20;10.70;;;;;;;15.89;100.00;98411.16;104982;1270;74834;-71
2022/08/27 03:48:46;;;;;;;12.90;10.60;;;;;;;15.86;100.00;98411.25;104853;1271;69562;-73
2022/08/27 03:51:14;;;;;;;11.80;10.00;;;;;;;15.84;100.00;98409.81;104891;1270;61256;-70
2022/08/27 03:53:42;;;;;;;13.40;10.20;;;;;;;15.83;100.00;98408.56;105060;1270;61596;-70
2022/08/27 03:56:09;;;;;;;13.70;10.30;;;;;;;15.79;100.00;98409.20;104996;1270;61899;-72
2022/08/27 03:58:37;;;;;;;14.10;10.60;;;;;;;15.78;100.00;98404.48;104889;1270;76641;-72
2022/08/27 04:01:05;;;;;;;12.80;9.80;;;;;;;15.78;100.00;98403.11;105091;1270;69226;-71
2022/08/27 04:03:32;;;;;;;14.10;10.60;;;;;;;15.78;100.00;98405.59;105122;1270;73284;-70
2022/08/27 04:05:59;;;;;;;13.40;10.40;;;;;;;15.79;100.00;98407.08;105085;1270;61387;-70
2022/08/27 04:08:25;;;;;;;13.10;10.10;;;;;;;15.81;100.00;98411.92;105023;1270;61352;-71
2022/08/27 04:10:53;;;;;;;13.40;10.80;;;;;;;15.86;100.00;98416.86;105080;1270;75481;-71
2022/08/27 04:13:21;;;;;;;12.20;11.00;;;;;;;15.99;100.00;98419.11;105106;1270;69106;-72
2022/08/27 04:15:50;;;;;;;13.90;10.40;;;;;;;16.16;100.00;98416.89;104901;1271;73796;-71
2022/08/27 04:18:17;;;;;;;11.50;10.00;;;;;;;16.36;100.00;98413.10;104884;1271;61304;-71
2022/08/27 04:20:45;;;;;;;14.60;10.70;;;;;;;16.60;100.00;98411.25;105028;1270;61298;-73
2022/08/27 04:23:12;;;;;;;12.20;10.90;;;;;;;16.85;100.00;98411.37;105087;1270;75337;-71
2022/08/27 04:25:40;;;;;;;15.80;10.60;;;;;;;17.11;100.00;98408.06;105093;1270;68734;-71
2022/08/27 04:28:06;;;;;;;13.70;10.10;;;;;;;17.35;100.00;98410.77;105004;1270;74200;-70
2022/08/27 04:30:32;;;;;;;11.70;9.80;;;;;;;17.59;100.00;98413.10;105061;1270;61304;-70
2022/08/27 04:32:59;;;;;;;11.20;10.10;;;;;;;17.82;100.00;98421.50;105098;1270;61381;-71
2022/08/27 04:35:25;;;;;;;12.30;10.00;;;;;;;18.00;100.00;98427.07;105008;1270;61402;-71
2022/08/27 04:37:50;;;;;;;14.10;9.90;;;;;;;18.25;100.00;98425.88;105048;1270;61451;-72
2022/08/27 04:40:16;;;;;;;12.30;9.70;;;;;;;18.54;100.00;98420.86;105032;1270;61801;-70
2022/08/27 04:42:43;;;;;;;10.20;9.10;;;;;;;18.90;100.00;98418.44;105050;1270;61303;-70
2022/08/27 04:45:10;;;;;;;11.00;9.10;;;;;;;19.25;100.00;98418.90;105032;1270;62318;-71
2022/08/27 04:47:36;;;;;;;10.10;9.10;;;;;;;19.60;100.00;98417.98;105088;1270;61457;-71
2022/08/27 04:50:03;;;;;;;11.50;8.60;;;;;;;19.98;100.00;98413.84;105013;1270;61296;-71
2022/08/27 04:52:29;;;;;;;10.80;8.90;;;;;;;20.23;100.00;98414.73;105026;1270;61384;-71
2022/08/27 04:54:56;;;;;;;13.60;9.20;;;;;;;20.50;100.00;98412.65;105044;1270;61288;-71
2022/08/27 04:57:22;;;;;;;10.90;8.90;;;;;;;20.80;100.00;98411.14;105054;1270;61387;-72
2022/08/27 04:59:48;;;;;;;10.00;8.10;;;;;;;21.10;100.00;98421.34;105014;1270;61223;-72
2022/08/27 05:02:15;;;;;;;10.60;8.20;;;;;;;21.35;100.00;98423.38;105070;1270;61393;-72
2022/08/27 05:04:41;;;;;;;9.70;7.60;;;;;;;21.49;100.00;98432.66;105062;1270;61291;-71
2022/08/27 05:07:09;;;;;;;10.10;8.70;;;;;;;21.68;100.00;98436.68;105051;1270;61395;-72
2022/08/27 05:09:36;;;;;;;10.10;7.60;;;;;;;21.86;99.89;98443.52;105086;1270;61291;-71
2022/08/27 05:12:02;;;;;;;11.00;7.60;;;;;;;21.99;98.48;98447.23;105079;1270;61353;-71
2022/08/27 05:14:31;;;;;;;9.60;7.60;;;;;;;22.13;97.08;98453.61;105054;1270;61227;-72
2022/08/27 05:16:58;;;;;;;10.80;7.30;;;;;;;22.35;96.62;98451.07;104847;1270;74254;-72
2022/08/27 05:19:25;;;;;;;9.50;7.40;;;;;;;22.53;95.24;98448.09;104941;1272;61525;-72
2022/08/27 05:21:52;;;;;;;8.10;7.00;;;;;;;22.76;94.82;98446.49;105113;1270;61186;-72
2022/08/27 05:24:20;;;;;;;10.40;9.50;;;;;;;23.03;93.37;98444.55;104890;1270;76672;-71
2022/08/27 05:26:46;;;;;;;9.40;8.40;;;;;;;23.36;92.07;98440.84;105101;1270;70456;-72
2022/08/27 05:29:13;;;;;;;10.10;7.80;;;;;;;23.74;90.75;98436.50;105079;1270;73229;-71
2022/08/27 05:31:40;;;;;;;9.00;7.60;;;;;;;24.01;88.21;98439.20;105089;1270;61428;-71
2022/08/27 05:34:08;;;;;;;9.80;8.60;;;;;;;24.15;86.30;98443.41;104853;1271;61282;-71
2022/08/27 05:36:34;;;;;;;10.20;7.50;;;;;;;24.26;85.67;98448.98;105117;1270;76416;-71
2022/08/27 05:39:04;;;;;;;8.50;7.60;;;;;;;24.29;84.26;98449.74;105096;1270;70646;-71
2022/08/27 05:41:32;;;;;;;9.40;7.40;;;;;;;24.40;83.61;98454.43;105087;1270;74415;-70
2022/08/27 05:44:01;;;;;;;8.10;7.30;;;;;;;24.55;82.97;98457.23;105094;1270;61350;-70
2022/08/27 05:46:28;;;;;;;8.30;6.60;;;;;;;24.63;82.07;98460.35;105081;1270;61389;-71
2022/08/27 05:48:57;;;;;;;7.00;6.40;;;;;;;24.68;80.95;98460.23;105080;1270;61389;-71
2022/08/27 05:51:29;;;;;;;8.40;6.40;;;;;;;24.69;80.22;98453.48;105082;1270;70245;-71
2022/08/27 05:54:13;;;;;;;7.80;6.60;;;;;;;24.60;80.85;98458.02;105087;1270;73639;-71
2022/08/27 05:56:41;;;;;;;8.70;6.60;;;;;;;24.70;80.24;98459.82;105093;1270;61413;-71
2022/08/27 06:01:54;;;;;;;7.60;6.60;;;;;;;24.89;78.60;98468.63;105124;1270;75547;-71
2022/08/27 06:04:22;;;;;;;8.20;6.60;;;;;;;25.07;79.05;98460.55;105185;1270;67943;-71
2022/08/27 06:06:49;;;;;;;7.50;6.40;;;;;;;25.33;78.19;98456.91;105096;1270;73569;-71
2022/08/27 06:09:19;;;;;;;9.10;6.70;;;;;;;25.43;77.87;98458.34;105118;1270;61356;-71
2022/08/27 06:11:46;;;;;;;;;;;;;;;25.55;77.14;98458.02;105152;1270;62204;-72
2022/08/27 06:14:12;;;;;;;7.00;6.20;;;;;;;25.60;75.95;98461.21;105129;1270;76399;-74
2022/08/27 06:16:40;;;;;;;8.50;6.10;;;;;;;25.75;75.74;98461.40;105063;1270;69265;-71
2022/08/27 06:19:10;;;;;;;8.30;6.10;;;;;;;25.97;75.60;98466.54;105066;1270;73283;-71
2022/08/27 06:21:37;;;;;;;8.40;6.40;;;;;;;25.96;74.88;98467.08;103947;1270;1680340;-73
2022/08/27 06:24:05;;;;;;;9.10;7.10;;;;;;;26.17;74.37;98464.65;105085;1270;61191;-71
2022/08/27 06:26:31;;;;;;;10.10;6.60;;;;;;;26.25;72.83;98458.95;105108;1270;75777;-71
2022/08/27 06:29:02;;;;;;;9.50;6.40;;;;;;;26.18;72.38;98458.02;105066;1270;61382;-69
2022/08/27 06:31:28;;;;;;;11.20;6.70;;;;;;;26.35;72.79;98456.38;105076;1270;74873;-72
2022/08/27 06:33:59;;;;;;;7.60;6.90;;;;;;;26.40;71.45;98453.70;105095;1270;61486;-70
2022/08/27 06:36:28;;;;;;;12.60;7.00;;;;;;;26.34;71.77;98446.27;105174;1270;61238;-72
2022/08/27 06:38:56;;;;;;;9.70;6.70;;;;;;;26.37;70.99;98443.84;105160;1270;75738;-70
2022/08/27 06:41:25;;;;;;;11.50;7.60;;;;;;;26.21;70.25;98447.37;105134;1270;69808;-70
2022/08/27 06:43:52;;;;;;;8.70;7.50;;;;;;;26.08;70.73;98443.63;105148;1270;73528;-69
2022/08/27 06:46:21;;;;;;;11.20;7.90;;;;;;;26.07;70.96;98448.05;105041;1270;61243;-71
2022/08/27 06:48:50;;;;;;;9.20;7.30;;;;;;;25.89;70.99;98448.28;105122;1270;62168;-71
2022/08/27 06:51:23;;;;;;;10.50;8.20;;;;;;;25.60;71.81;98451.46;105100;1270;76487;-71
2022/08/27 06:53:51;;;;;;;9.40;7.50;;;;;;;25.48;72.45;98453.73;105173;1270;70339;-73
2022/08/27 06:56:18;;;;;;;8.50;7.60;;;;;;;25.42;73.59;98458.67;105125;1270;73602;-71
2022/08/27 06:58:45;;;;;;;12.00;8.40;;;;;;;25.45;74.34;98455.57;105099;1270;61262;-71
2022/08/27 07:01:17;;;;;;;11.60;9.10;;;;;;;25.47;73.95;98456.48;105093;1270;61444;-73
2022/08/27 07:03:44;;;;;;;9.00;8.10;;;;;;;25.50;74.07;98459.76;105122;1270;75397;-72
2022/08/27 07:06:13;;;;;;;9.00;8.10;;;;;;;25.69;73.66;98463.41;104831;1270;68928;-71
2022/08/27 07:08:40;;;;;;;10.00;8.50;;;;;;;25.93;73.36;98468.02;104980;1270;73316;-70
2022/08/27 07:11:07;;;;;;;10.70;9.10;;;;;;;25.94;73.30;98465.48;105079;1270;61241;-72
2022/08/27 07:13:34;;;;;;;14.20;9.80;;;;;;;25.86;73.62;98470.84;105197;1270;62125;-71
2022/08/27 07:16:12;;;;;;;10.70;8.70;;;;;;;25.68;74.16;98472.32;105051;1270;75200;-71
2022/08/27 07:18:39;;;;;;;11.50;9.20;;;;;;;25.55;75.09;98476.04;105154;1270;70366;-71
2022/08/27 07:21:07;;;;;;;12.90;9.10;;;;;;;25.63;75.42;98476.52;104894;1273;74598;-71
2022/08/27 07:23:34;;;;;;;9.70;8.60;;;;;;;25.72;75.92;98479.16;104917;1270;61374;-72
2022/08/27 07:26:00;;;;;;;11.00;9.60;;;;;;;25.75;75.70;98480.30;105120;1270;62022;-74
2022/08/27 07:28:28;;;;;;;11.70;8.90;;;;;;;25.79;76.36;98480.87;105163;1270;75631;-72
2022/08/27 07:30:54;;;;;;;11.50;9.10;;;;;;;25.87;76.89;98476.90;105057;1270;70399;-73
2022/08/27 07:33:20;;;;;;;11.20;9.90;;;;;;;25.86;76.09;98484.11;104984;1270;61286;-72
2022/08/27 07:35:48;;;;;;;13.00;9.60;;;;;;;25.78;76.82;98492.05;105061;1270;61258;-70
2022/08/27 07:38:14;;;;;;;11.50;10.20;;;;;;;25.77;77.14;98498.34;104833;1270;62355;-71
2022/08/27 07:40:40;;;;;;;11.90;10.60;;;;;;;25.73;77.31;98498.94;105114;1270;61344;-72
2022/08/27 07:45:55;;;;;;;15.40;10.90;;;;;;;25.53;78.58;98499.84;105071;1269;71875;-72
2022/08/27 07:48:22;;;;;;;13.40;10.50;;;;;;;25.56;79.46;98501.27;105126;1270;61296;-71
2022/08/27 07:50:50;;;;;;;12.70;10.00;;;;;;;25.56;79.78;98500.52;105168;1270;61206;-71
2022/08/27 07:53:17;;;;;;;12.20;9.60;;;;;;;25.56;80.57;98503.28;105155;1270;75372;-72
2022/08/27 07:55:43;;;;;;;11.70;10.10;;;;;;;25.52;80.51;98508.36;105161;1270;70214;-72
2022/08/27 07:58:11;;;;;;;17.20;10.80;;;;;;;25.47;80.05;98503.88;105058;1270;74449;-72
2022/08/27 08:00:44;;;;;;;14.10;10.10;;;;;;;25.40;81.01;98505.68;105142;1270;61316;-72
2022/08/27 08:03:11;;;;;;;12.20;11.00;;;;;;;25.39;81.11;98509.59;104906;1270;61308;-72
2022/08/27 08:05:42;;;;;;;13.90;10.50;;;;;;;25.41;81.46;98513.08;105002;1271;74861;-71
2022/08/27 08:08:10;;;;;;;13.40;10.00;;;;;;;25.40;81.20;98513.20;105008;1270;70375;-70
2022/08/27 08:10:37;;;;;;;11.80;10.00;;;;;;;25.34;81.48;98517.60;105144;1270;74476;-71
2022/08/27 08:13:05;;;;;;;15.30;11.90;;;;;;;25.28;81.90;98521.17;104969;1270;61353;-72
2022/08/27 08:15:32;;;;;;;13.80;11.20;;;;;;;25.31;82.60;98520.52;105130;1270;62101;-71
2022/08/27 08:17:59;;;;;;;11.80;10.70;;;;;;;25.46;83.15;98513.48;105099;1270;75254;-72
2022/08/27 08:20:26;;;;;;;13.90;11.20;;;;;;;25.56;83.16;98509.54;105117;1270;70564;-71
2022/08/27 08:22:51;;;;;;;13.40;11.50;;;;;;;25.67;83.41;98514.11;105116;1270;61345;-72
2022/08/27 08:25:18;;;;;;;13.70;11.10;;;;;;;25.77;83.35;98513.46;105071;1270;61438;-72
2022/08/27 08:27:44;;;;;;;15.00;11.20;;;;;;;25.86;82.85;98517.30;104913;1270;61537;-71
2022/08/27 08:30:12;;;;;;;11.40;10.40;;;;;;;25.85;83.13;98516.80;105007;1270;61423;-72
2022/08/27 08:32:42;;;;;;;12.40;10.70;;;;;;;25.96;83.63;98517.86;105135;1270;69144;-71
2022/08/27 08:35:09;;;;;;;12.30;10.30;;;;;;;26.13;84.21;98519.71;104987;1271;74512;-70
2022/08/27 08:37:36;;;;;;;13.20;11.50;;;;;;;26.21;83.67;98518.35;105142;1270;61310;-73
2022/08/27 08:40:05;;;;;;;12.20;10.90;;;;;;;26.20;82.65;98519.58;105062;1270;61343;-71
2022/08/27 08:42:45;;;;;;;14.80;11.60;;;;;;;26.23;83.64;98519.42;105055;1270;75336;-72
2022/08/27 08:45:13;;;;;;;;;;;;;;;26.28;83.87;98520.13;105114;1270;70267;-71
2022/08/27 08:48:10;;;;;;;11.80;10.60;;;;;;;26.32;83.67;98523.61;105109;1270;74180;-71
2022/08/27 08:51:04;;;;;;;12.40;9.30;;;;;;;26.38;84.49;98524.81;105114;1270;61444;-70
2022/08/27 08:53:51;;;;;;;12.20;9.40;;;;;;;26.49;84.31;98528.21;104848;1271;62107;-70
2022/08/27 08:56:49;;;;;;;11.00;9.70;;;;;;;26.54;82.40;98530.41;105075;1270;75337;-70
2022/08/27 08:59:35;;;;;;;11.70;8.80;;;;;;;26.56;81.38;98533.05;104430;1277;69841;-71
2022/08/27 09:02:01;;;;;;;10.00;8.90;;;;;;;26.56;80.86;98537.41;104425;1277;74632;-72
2022/08/27 09:04:28;;;;;;;9.00;8.10;;;;;;;26.53;80.43;98536.08;104444;1277;61305;-71
2022/08/27 09:07:15;;;;;;;13.80;8.60;;;;;;;26.35;79.96;98537.55;104423;1277;61966;-71
2022/08/27 09:09:41;;;;;;;10.70;8.00;;;;;;;26.25;79.57;98538.71;104466;1277;74431;-71
2022/08/27 09:12:17;;;;;;;10.80;7.80;;;;;;;26.34;80.01;98539.98;104463;1277;61554;-71
2022/08/27 09:15:02;;;;;;;14.00;8.50;;;;;;;26.48;79.05;98546.00;104508;1277;74722;-73
2022/08/27 09:17:28;;;;;;;8.40;7.60;;;;;;;26.59;78.97;98548.46;104508;1277;61502;-70
2022/08/27 09:19:54;;;;;;;9.00;7.60;;;;;;;26.64;78.67;98550.37;104496;1277;61371;-70
2022/08/27 09:22:41;;;;;;;12.30;8.40;;;;;;;26.70;78.35;98543.53;104535;1277;61408;-70
2022/08/27 09:25:11;;;;;;;11.50;8.40;;;;;;;26.76;77.48;98541.00;104483;1277;70805;-70
2022/08/27 09:27:41;;;;;;;9.60;8.10;;;;;;;26.77;77.23;98539.83;104460;1277;74286;-69
2022/08/27 09:30:19;;;;;;;11.40;8.70;;;;;;;26.78;77.28;98538.89;104528;1277;61245;-70
2022/08/27 09:32:56;;;;;;;10.50;8.60;;;;;;;26.79;76.85;98542.61;104493;1277;61359;-70
2022/08/27 09:35:25;;;;;;;9.20;8.20;;;;;;;26.82;76.98;98543.09;104326;1278;74554;-71
2022/08/27 09:37:56;;;;;;;11.80;8.00;;;;;;;26.90;77.53;98545.45;105053;1270;69210;-71
2022/08/27 09:40:40;;;;;;;12.70;9.40;;;;;;;27.02;77.82;98546.81;105104;1270;73444;-71
2022/08/27 09:43:22;;;;;;;8.60;7.50;;;;;;;27.11;75.58;98548.56;105082;1270;61272;-70
2022/08/27 09:45:51;;;;;;;12.70;7.90;;;;;;;27.07;74.01;98548.75;105080;1270;61973;-70
2022/08/27 09:48:20;;;;;;;14.00;8.50;;;;;;;27.03;73.21;98550.84;105090;1270;74567;-71
2022/08/27 09:50:51;;;;;;;11.90;9.40;;;;;;;27.07;74.57;98551.58;105108;1270;70817;-71
2022/08/27 09:53:47;;;;;;;11.20;9.00;;;;;;;27.18;75.15;98549.41;105148;1270;73204;-70
2022/08/27 09:56:24;;;;;;;11.90;9.10;;;;;;;27.37;75.23;98550.60;105089;1270;61280;-71
2022/08/27 09:58:59;;;;;;;12.00;9.50;;;;;;;27.53;75.43;98543.90;105124;1270;61289;-72
2022/08/27 10:01:29;;;;;;;13.10;9.50;;;;;;;27.68;75.48;98538.21;105102;1270;76104;-72
2022/08/27 10:04:21;;;;;;;;;;;;;;;27.84;75.97;98540.08;105098;1270;70776;-72
2022/08/27 10:06:50;;;;;;;10.10;9.00;;;;;;;27.87;75.23;98545.48;104664;1277;74685;-71
2022/08/27 10:09:33;;;;;;;10.50;9.10;;;;;;;27.74;73.51;98547.07;104416;1279;61405;-72
2022/08/27 10:12:07;;;;;;;14.70;10.70;;;;;;;27.44;72.13;98551.38;104400;1279;62111;-72
2022/08/27 10:14:39;;;;;;;11.80;9.90;;;;;;;27.30;73.11;98550.10;104368;1279;74927;-72
2022/08/27 10:17:21;;;;;;;14.70;10.10;;;;;;;27.39;73.93;98543.01;104473;1277;70349;-72
2022/08/27 10:20:06;;;;;;;15.30;10.40;;;;;;;27.52;74.37;98543.06;104352;1279;74504;-71
2022/08/27 10:22:40;;;;;;;12.10;10.50;;;;;;;27.62;74.50;98541.02;104438;1279;61492;-72
2022/08/27 10:25:34;;;;;;;13.50;11.10;;;;;;;27.65;73.02;98537.69;104419;1279;61743;-70
2022/08/27 10:28:09;;;;;;;17.10;9.70;;;;;;;27.68;73.10;98534.52;104545;1279;76508;-70
2022/08/27 10:31:15;;;;;;;11.60;9.50;;;;;;;27.76;72.76;98531.95;104557;1279;70378;-70
2022/08/27 10:33:44;;;;;;;13.00;9.70;;;;;;;27.90;72.99;98522.91;104414;1278;74076;-71
2022/08/27 10:36:54;;;;;;;11.90;10.50;;;;;;;28.04;72.96;98520.23;104459;1279;61454;-70
2022/08/27 10:39:40;;;;;;;12.30;8.80;;;;;;;28.21;72.99;98514.86;104236;1283;61390;-70
2022/08/27 10:42:23;;;;;;;9.90;8.90;;;;;;;28.31;72.27;98516.78;103988;1283;76426;-71
2022/08/27 10:45:04;;;;;;;11.30;10.20;;;;;;;28.36;70.50;98515.23;104469;1277;70122;-73
2022/08/27 10:47:41;;;;;;;12.00;8.90;;;;;;;28.23;69.61;98512.27;104498;1277;73512;-71
2022/08/27 10:50:20;;;;;;;11.10;8.80;;;;;;;28.26;71.57;98507.94;104459;1277;61955;-69
2022/08/27 10:52:52;;;;;;;9.90;8.90;;;;;;;28.42;71.98;98503.92;104540;1277;61832;-70
2022/08/27 10:55:35;;;;;;;10.20;8.50;;;;;;;28.59;71.62;98503.81;104472;1277;75494;-70
2022/08/27 10:58:32;;;;;;;10.70;8.40;;;;;;;28.59;69.07;98502.92;104500;1277;70183;-71
2022/08/27 11:01:24;;;;;;;10.10;9.00;;;;;;;28.50;68.12;98500.64;104484;1277;73663;-72
2022/08/27 11:04:20;;;;;;;13.50;8.70;;;;;;;28.50;68.82;98496.38;104452;1279;61301;-71
2022/08/27 11:06:56;;;;;;;11.30;8.30;;;;;;;28.61;68.20;98493.02;103898;1284;61471;-73
2022/08/27 11:09:35;;;;;;;9.30;7.90;;;;;;;28.71;67.56;98496.91;103830;1284;75463;-73
2022/08/27 11:12:08;;;;;;;8.00;6.70;;;;;;;28.77;67.02;98494.40;103937;1284;69409;-71
2022/08/27 11:14:49;;;;;;;7.60;6.00;;;;;;;28.85;65.22;98493.45;104029;1284;74478;-72
2022/08/27 11:17:27;;;;;;;9.70;5.90;;;;;;;28.85;64.63;98493.02;104364;1277;61456;-72
2022/08/27 11:19:59;;;;;;;8.10;5.80;;;;;;;28.94;63.77;98489.73;104435;1278;61376;-72
2022/08/27 11:22:33;;;;;;;10.10;5.90;;;;;;;29.00;64.04;98485.73;104471;1278;76636;-71
2022/08/27 11:25:24;;;;;;;8.20;5.80;;;;;;;29.16;64.04;98485.34;104529;1277;69890;-71
2022/08/27 11:27:52;;;;;;;7.60;6.30;;;;;;;29.23;62.48;98478.68;104526;1278;74687;-72
2022/08/27 11:30:34;;;;;;;7.50;5.90;;;;;;;29.22;61.71;98485.33;104459;1277;61323;-71
2022/08/27 11:33:11;;;;;;;8.00;5.10;;;;;;;29.23;61.13;98483.12;104491;1278;61871;-70